Terminal Aerodrome Forecast
Issued by NWS

Current Version | Previous Version | Text Only | Print | Product List | Glossary On
Versions: 1 2 3 4 5 6 7 8 9 10 11 12 13 14 15 16 17 18
000
FTUS41 KPHI 221137
TAFMIV
TAF
KMIV 221137Z 2212/2312 VRB03KT P6SM SCT070
     FM221700 24006KT P6SM SCT060 BKN100 PROB30 2222/2303 4SM +TSRA
      OVC040CB
     FM230300 VRB05KT P6SM OVC050 PROB30 2303/2309 4SM TSRA OVC035CB
     FM230900 VRB04KT 5SM BR BKN040=

USA.gov is the U.S. government's official web portal to all federal, state and local government web resources and services.